createdAt,value
2018-09-14T00:00:40.406Z,13.90
2018-09-14T00:02:33.399Z,13.93
2018-09-14T00:03:33.458Z,13.87
2018-09-14T00:05:26.439Z,13.87
2018-09-14T00:06:26.499Z,13.79
2018-09-14T00:08:19.495Z,13.81
2018-09-14T00:09:19.550Z,13.83
2018-09-14T00:11:12.563Z,13.72
2018-09-14T00:12:12.598Z,13.81
2018-09-14T00:14:05.588Z,13.87
2018-09-14T00:15:05.643Z,13.70
2018-09-14T00:16:58.636Z,13.74
2018-09-14T00:17:58.687Z,13.67
2018-09-14T00:19:51.676Z,13.79
2018-09-14T00:20:51.735Z,13.71
2018-09-14T00:22:44.726Z,13.68
2018-09-14T00:23:44.782Z,13.70
2018-09-14T00:25:37.784Z,13.70
2018-09-14T00:26:37.845Z,13.67
2018-09-14T00:28:30.843Z,13.65
2018-09-14T00:29:30.889Z,13.72
2018-09-14T00:31:23.886Z,13.65
2018-09-14T00:32:23.944Z,13.57
2018-09-14T00:34:16.934Z,13.60
2018-09-14T00:35:16.992Z,13.53
2018-09-14T00:37:09.985Z,13.54
2018-09-14T00:38:10.036Z,13.53
2018-09-14T00:40:03.022Z,13.54
2018-09-14T00:41:03.083Z,13.53
2018-09-14T00:42:56.071Z,13.56
2018-09-14T00:43:56.125Z,13.39
2018-09-14T00:45:49.111Z,13.39
2018-09-14T00:46:49.173Z,13.52
2018-09-14T00:48:42.171Z,13.44
2018-09-14T00:49:42.222Z,13.53
2018-09-14T00:51:35.207Z,13.44
2018-09-14T00:52:35.269Z,13.47
2018-09-14T00:54:28.262Z,13.46
2018-09-14T00:55:28.318Z,13.52
2018-09-14T00:57:21.304Z,13.46
2018-09-14T00:58:21.362Z,13.46
2018-09-14T01:00:14.357Z,13.39
2018-09-14T01:01:14.408Z,13.35
2018-09-14T01:03:07.402Z,13.25
2018-09-14T01:04:07.456Z,13.16
2018-09-14T01:06:00.448Z,13.11
2018-09-14T01:07:00.508Z,13.09
2018-09-14T01:08:53.499Z,13.08
2018-09-14T01:09:53.557Z,13.00
2018-09-14T01:11:46.549Z,12.87
2018-09-14T01:12:46.608Z,12.94
2018-09-14T01:14:50.139Z,12.93
2018-09-14T01:15:39.651Z,12.93
2018-09-14T01:17:32.637Z,12.85
2018-09-14T01:18:32.697Z,12.73
2018-09-14T01:20:25.691Z,12.75
2018-09-14T01:21:25.740Z,12.67
2018-09-14T01:23:18.734Z,12.76
2018-09-14T01:24:18.783Z,12.61
2018-09-14T01:26:11.773Z,12.65
2018-09-14T01:27:11.834Z,12.53
2018-09-14T01:29:04.832Z,12.47
2018-09-14T01:30:04.879Z,12.50
2018-09-14T01:31:57.861Z,12.42
2018-09-14T01:32:57.921Z,12.43
2018-09-14T01:34:50.915Z,12.40
2018-09-14T01:35:50.969Z,12.29
2018-09-14T01:37:43.953Z,12.28
2018-09-14T01:38:44.012Z,12.27
2018-09-14T01:40:37.008Z,12.28
2018-09-14T01:41:37.060Z,12.24
2018-09-14T01:43:30.070Z,12.28
2018-09-14T01:44:30.106Z,12.28
2018-09-14T01:46:23.092Z,12.24
2018-09-14T01:47:23.152Z,12.27
2018-09-14T01:49:16.149Z,12.17
2018-09-14T01:50:16.196Z,12.20
2018-09-14T01:52:09.183Z,12.07
2018-09-14T01:53:09.242Z,12.02
2018-09-14T01:55:02.237Z,12.03
2018-09-14T01:56:02.285Z,12.06
2018-09-14T01:57:55.273Z,12.00
2018-09-14T01:58:55.334Z,12.02
2018-09-14T02:00:48.329Z,12.02
2018-09-14T02:01:48.382Z,11.95
2018-09-14T02:03:41.372Z,11.94
2018-09-14T02:04:41.423Z,11.91
2018-09-14T02:06:34.414Z,11.94
2018-09-14T02:07:34.469Z,11.90
2018-09-14T02:09:27.464Z,11.86
2018-09-14T02:10:27.517Z,11.94
2018-09-14T02:12:20.501Z,11.83
2018-09-14T02:13:20.559Z,11.78
2018-09-14T02:15:13.556Z,11.75
2018-09-14T02:16:13.608Z,11.73
2018-09-14T02:18:06.590Z,11.70
2018-09-14T02:19:06.651Z,11.65
2018-09-14T02:20:59.644Z,11.68
2018-09-14T02:21:59.693Z,11.73
2018-09-14T02:23:52.687Z,11.66
2018-09-14T02:24:52.742Z,11.63
2018-09-14T02:26:45.726Z,11.59
2018-09-14T02:27:45.791Z,11.59
2018-09-14T02:29:38.779Z,11.54
2018-09-14T02:30:38.831Z,11.55
2018-09-14T02:32:31.815Z,11.47
2018-09-14T02:33:31.878Z,11.43
2018-09-14T02:35:24.870Z,11.26
2018-09-14T02:36:24.930Z,11.19
2018-09-14T02:38:17.917Z,11.23
2018-09-14T02:39:17.971Z,11.18
2018-09-14T02:41:10.964Z,11.08
2018-09-14T02:42:11.015Z,11.05
2018-09-14T02:44:04.008Z,11.07
2018-09-14T02:45:04.059Z,11.08
2018-09-14T02:46:57.045Z,11.14
2018-09-14T02:47:57.108Z,11.05
2018-09-14T02:49:50.101Z,11.14
2018-09-14T02:50:50.168Z,11.08
2018-09-14T02:52:43.141Z,11.02
2018-09-14T02:53:43.199Z,10.92
2018-09-14T02:55:36.192Z,10.97
2018-09-14T02:56:36.248Z,10.94
2018-09-14T02:58:29.228Z,10.90
2018-09-14T02:59:29.288Z,10.92
2018-09-14T03:01:22.276Z,10.93
2018-09-14T03:02:22.329Z,10.97
2018-09-14T03:04:15.322Z,10.93
2018-09-14T03:05:15.372Z,10.96
2018-09-14T03:07:08.355Z,10.86
2018-09-14T03:08:08.412Z,10.86
2018-09-14T03:10:01.405Z,10.89
2018-09-14T03:11:01.457Z,10.87
2018-09-14T03:12:54.439Z,10.97
2018-09-14T03:13:54.498Z,10.90
2018-09-14T03:15:47.491Z,10.96
2018-09-14T03:16:47.541Z,10.87
2018-09-14T03:18:40.526Z,10.99
2018-09-14T03:19:40.584Z,11.05
2018-09-14T03:21:33.577Z,10.96
2018-09-14T03:22:33.624Z,10.96
2018-09-14T03:24:26.612Z,11.04
2018-09-14T03:25:26.666Z,10.99
2018-09-14T03:27:19.656Z,10.90
2018-09-14T03:28:19.707Z,10.93
2018-09-14T03:30:12.707Z,10.86
2018-09-14T03:31:12.759Z,10.96
2018-09-14T03:33:05.743Z,10.89
2018-09-14T03:34:05.803Z,10.86
2018-09-14T03:35:58.793Z,10.90
2018-09-14T03:36:58.841Z,10.74
2018-09-14T03:38:51.828Z,10.74
2018-09-14T03:39:51.886Z,10.79
2018-09-14T03:41:44.878Z,10.74
2018-09-14T03:42:44.929Z,10.76
2018-09-14T03:44:37.913Z,10.74
2018-09-14T03:45:37.971Z,10.69
2018-09-14T03:47:30.967Z,10.76
2018-09-14T03:48:31.015Z,10.75
2018-09-14T03:50:24.000Z,10.75
2018-09-14T03:51:24.074Z,10.74
2018-09-14T03:53:17.037Z,10.72
2018-09-14T03:54:17.095Z,10.64
2018-09-14T03:56:10.093Z,10.69
2018-09-14T03:57:10.169Z,10.57
2018-09-14T03:59:03.124Z,10.67
2018-09-14T04:00:03.183Z,10.60
2018-09-14T04:01:56.177Z,10.57
2018-09-14T04:02:56.225Z,10.67
2018-09-14T04:04:49.207Z,10.63
2018-09-14T04:05:49.266Z,10.67
2018-09-14T04:07:42.792Z,10.61
2018-09-14T04:08:42.815Z,10.64
2018-09-14T04:10:35.803Z,10.51
2018-09-14T04:11:35.862Z,10.53
2018-09-14T04:13:28.854Z,10.56
2018-09-14T04:14:28.907Z,10.46
2018-09-14T04:16:21.899Z,10.53
2018-09-14T04:17:21.951Z,10.51
2018-09-14T04:19:14.943Z,10.41
2018-09-14T04:20:14.993Z,10.48
2018-09-14T04:22:07.998Z,10.41
2018-09-14T04:23:08.036Z,10.44
2018-09-14T04:25:01.019Z,10.40
2018-09-14T04:26:01.076Z,10.51
2018-09-14T04:27:54.062Z,10.54
2018-09-14T04:28:54.118Z,10.41
2018-09-14T04:30:47.113Z,10.44
2018-09-14T04:31:47.165Z,10.51
2018-09-14T04:33:40.162Z,10.40
2018-09-14T04:34:40.210Z,10.42
2018-09-14T04:36:33.192Z,10.46
2018-09-14T04:37:33.252Z,10.33
2018-09-14T04:39:26.244Z,10.33
2018-09-14T04:40:26.291Z,10.26
2018-09-14T04:42:19.284Z,10.28
2018-09-14T04:43:19.333Z,10.26
2018-09-14T04:45:12.313Z,10.15
2018-09-14T04:46:12.373Z,10.12
2018-09-14T04:48:05.363Z,10.26
2018-09-14T04:49:05.414Z,10.10
2018-09-14T04:50:58.400Z,10.17
2018-09-14T04:51:58.457Z,10.09
2018-09-14T04:53:51.450Z,10.19
2018-09-14T04:54:51.504Z,10.16
2018-09-14T04:56:44.486Z,10.19
2018-09-14T04:57:44.547Z,10.16
2018-09-14T04:59:37.538Z,10.17
2018-09-14T05:00:37.592Z,10.28
2018-09-14T05:02:30.592Z,10.19
2018-09-14T05:03:30.629Z,10.19
2018-09-14T05:05:23.614Z,10.23
2018-09-14T05:06:23.675Z,10.16
2018-09-14T05:08:16.659Z,10.20
2018-09-14T05:09:16.712Z,10.17
2018-09-14T05:11:09.697Z,10.17
2018-09-14T05:12:09.758Z,10.17
2018-09-14T05:14:02.787Z,10.22
2018-09-14T05:15:02.804Z,10.22
2018-09-14T05:16:55.785Z,10.17
2018-09-14T05:17:55.844Z,10.20
2018-09-14T05:19:48.838Z,10.16
2018-09-14T05:20:48.901Z,10.13
2018-09-14T05:22:41.871Z,10.23
2018-09-14T05:23:41.929Z,10.31
2018-09-14T05:25:34.920Z,10.31
2018-09-14T05:26:34.972Z,10.28
2018-09-14T05:28:27.963Z,10.30
2018-09-14T05:29:28.015Z,10.31
2018-09-14T05:31:21.023Z,10.23
2018-09-14T05:32:21.061Z,10.20
2018-09-14T05:34:14.088Z,10.23
2018-09-14T05:35:14.118Z,10.35
2018-09-14T05:37:07.105Z,10.34
2018-09-14T05:38:07.210Z,10.41
2018-09-14T05:40:00.152Z,10.37
2018-09-14T05:41:00.204Z,10.53
2018-09-14T05:42:53.184Z,10.38
2018-09-14T05:43:53.243Z,10.40
2018-09-14T05:45:46.336Z,10.37
2018-09-14T05:46:46.288Z,10.53
2018-09-14T05:48:39.269Z,10.54
2018-09-14T05:49:39.329Z,10.64
2018-09-14T05:51:32.375Z,10.64
2018-09-14T05:52:32.426Z,10.72
2018-09-14T05:54:25.472Z,10.86
2018-09-14T05:55:25.474Z,10.86
2018-09-14T05:57:18.459Z,10.97
2018-09-14T05:58:18.521Z,10.90
2018-09-14T06:00:11.500Z,11.02
2018-09-14T06:01:11.554Z,11.04
2018-09-14T06:03:04.537Z,11.17
2018-09-14T06:04:04.596Z,11.22
2018-09-14T06:05:57.589Z,11.15
2018-09-14T06:06:57.641Z,11.26
2018-09-14T06:08:50.627Z,11.35
2018-09-14T06:09:50.688Z,11.40
2018-09-14T06:11:43.679Z,11.43
2018-09-14T06:12:43.731Z,11.50
2018-09-14T06:14:36.722Z,11.65
2018-09-14T06:15:36.807Z,11.72
2018-09-14T06:17:29.759Z,11.84
2018-09-14T06:18:29.820Z,11.88
2018-09-14T06:20:22.813Z,12.02
2018-09-14T06:21:22.864Z,12.17
2018-09-14T06:23:15.847Z,12.12
2018-09-14T06:24:15.904Z,12.17
2018-09-14T06:26:08.892Z,12.21
2018-09-14T06:27:08.945Z,12.29
2018-09-14T06:29:01.939Z,12.43
2018-09-14T06:30:02.001Z,12.40
2018-09-14T06:31:54.993Z,12.72
2018-09-14T06:32:55.043Z,12.79
2018-09-14T06:34:48.036Z,12.93
2018-09-14T06:35:48.097Z,13.00
2018-09-14T06:37:41.088Z,13.19
2018-09-14T06:38:41.136Z,13.46
2018-09-14T06:40:34.133Z,14.10
2018-09-14T06:41:34.181Z,14.51
2018-09-14T06:43:27.171Z,15.55
2018-09-14T06:44:27.229Z,16.17
2018-09-14T06:46:20.221Z,17.44
2018-09-14T06:47:20.274Z,18.15
2018-09-14T06:49:13.259Z,18.95
2018-09-14T06:50:13.321Z,19.19
2018-09-14T06:52:06.363Z,19.31
2018-09-14T06:53:06.370Z,19.36
2018-09-14T06:54:59.359Z,20.03
2018-09-14T06:55:59.420Z,20.07
2018-09-14T06:57:52.422Z,20.74
2018-09-14T06:58:52.479Z,21.21
2018-09-14T07:00:45.469Z,21.75
2018-09-14T07:01:45.534Z,22.02
2018-09-14T07:03:38.537Z,22.45
2018-09-14T07:04:38.594Z,22.66
2018-09-14T07:06:31.625Z,23.13
2018-09-14T07:07:31.653Z,23.43
2018-09-14T07:09:24.647Z,23.48
2018-09-14T07:10:24.710Z,23.27
2018-09-14T07:12:17.711Z,23.84
2018-09-14T07:13:17.828Z,23.96
2018-09-14T07:15:10.760Z,23.93
2018-09-14T07:16:10.826Z,23.68
2018-09-14T07:18:03.827Z,23.93
2018-09-14T07:19:03.891Z,23.95
2018-09-14T07:20:56.885Z,23.88
2018-09-14T07:21:57.024Z,24.17
2018-09-14T07:23:49.961Z,24.11
2018-09-14T07:24:50.196Z,24.70
2018-09-14T07:26:43.019Z,24.45
2018-09-14T07:27:43.084Z,24.77
2018-09-14T07:29:36.080Z,25.58
2018-09-14T07:30:36.241Z,25.70
2018-09-14T07:32:29.157Z,25.53
2018-09-14T07:33:29.211Z,25.44
2018-09-14T07:35:22.206Z,25.07
2018-09-14T07:36:22.281Z,25.25
2018-09-14T07:38:15.283Z,25.68
2018-09-14T07:39:15.340Z,25.29
2018-09-14T07:41:08.346Z,24.96
2018-09-14T07:42:08.414Z,24.51
2018-09-14T07:44:01.422Z,24.45
2018-09-14T07:45:01.480Z,24.69
2018-09-14T07:46:54.485Z,25.16
2018-09-14T07:47:54.557Z,25.70
2018-09-14T07:49:47.564Z,26.34
2018-09-14T07:50:47.626Z,26.56
2018-09-14T07:52:40.638Z,26.74
2018-09-14T07:53:40.699Z,26.89
2018-09-14T07:55:33.789Z,26.83
2018-09-14T07:56:33.773Z,26.29
2018-09-14T07:58:26.780Z,26.56
2018-09-14T07:59:26.842Z,26.03
2018-09-14T08:01:19.915Z,26.07
2018-09-14T08:02:19.920Z,25.66
2018-09-14T08:04:12.933Z,25.65
2018-09-14T08:05:12.998Z,26.07
2018-09-14T08:07:06.004Z,26.22
2018-09-14T08:08:06.072Z,26.21
2018-09-14T08:09:59.082Z,26.81
2018-09-14T08:10:59.145Z,26.59
2018-09-14T08:12:52.151Z,26.81
2018-09-14T08:13:52.220Z,27.18
2018-09-14T08:15:45.285Z,26.75
2018-09-14T08:16:45.300Z,27.03
2018-09-14T08:18:38.316Z,27.27
2018-09-14T08:19:38.378Z,27.70
2018-09-14T08:21:31.421Z,28.30
2018-09-14T08:22:31.455Z,28.45
2018-09-14T08:24:24.466Z,27.36
2018-09-14T08:25:24.532Z,26.92
2018-09-14T08:27:17.565Z,27.40
2018-09-14T08:28:17.604Z,27.11
2018-09-14T08:30:10.619Z,26.75
2018-09-14T08:31:10.681Z,26.62
2018-09-14T08:33:03.687Z,26.09
2018-09-14T08:34:03.757Z,26.21
2018-09-14T08:35:56.778Z,26.74
2018-09-14T08:36:56.839Z,27.30
2018-09-14T08:38:49.849Z,28.29
2018-09-14T08:39:49.915Z,28.26
2018-09-14T08:41:42.920Z,28.54
2018-09-14T08:42:42.989Z,28.44
2018-09-14T08:44:36.003Z,27.96
2018-09-14T08:45:36.065Z,27.89
2018-09-14T08:47:29.075Z,27.70
2018-09-14T08:48:29.146Z,27.63
2018-09-14T08:50:22.157Z,27.92
2018-09-14T08:51:22.220Z,28.11
2018-09-14T08:53:15.228Z,28.02
2018-09-14T08:54:15.298Z,27.93
2018-09-14T08:56:08.311Z,26.78
2018-09-14T08:57:08.373Z,26.45
2018-09-14T08:59:01.385Z,26.03
2018-09-14T09:00:01.450Z,25.62
2018-09-14T09:01:54.479Z,23.77
2018-09-14T09:02:54.527Z,23.37
2018-09-14T09:04:47.540Z,22.48
2018-09-14T09:05:47.600Z,22.39
2018-09-14T09:07:42.113Z,21.98
2018-09-14T09:08:42.180Z,21.75
2018-09-14T09:10:35.191Z,21.66
2018-09-14T09:11:35.255Z,21.67
2018-09-14T09:13:28.257Z,21.46
2018-09-14T09:14:28.327Z,21.29
2018-09-14T09:16:21.336Z,21.42
2018-09-14T09:17:21.391Z,21.43
2018-09-14T09:19:14.397Z,21.14
2018-09-14T09:20:14.458Z,21.12
2018-09-14T09:22:07.464Z,21.17
2018-09-14T09:23:07.524Z,21.11
2018-09-14T09:25:00.526Z,21.29
2018-09-14T09:26:00.589Z,21.18
2018-09-14T09:27:53.581Z,21.18
2018-09-14T09:28:53.647Z,21.27
2018-09-14T09:30:46.653Z,20.92
2018-09-14T09:31:46.713Z,21.03
2018-09-14T09:33:39.707Z,21.18
2018-09-14T09:34:39.772Z,20.96
2018-09-14T09:36:32.780Z,21.21
2018-09-14T09:37:32.835Z,21.29
2018-09-14T09:39:25.833Z,21.27
2018-09-14T09:40:25.897Z,21.48
2018-09-14T09:42:18.901Z,21.36
2018-09-14T09:43:19.035Z,21.40
2018-09-14T09:45:11.957Z,21.50
2018-09-14T09:46:12.023Z,21.54
2018-09-14T09:48:05.037Z,20.99
2018-09-14T09:49:05.083Z,20.93
2018-09-14T09:50:58.140Z,20.99
2018-09-14T09:51:58.144Z,21.14
2018-09-14T09:53:51.139Z,20.84
2018-09-14T09:54:51.204Z,20.72
2018-09-14T09:56:44.222Z,20.97
2018-09-14T09:57:44.264Z,21.09
2018-09-14T09:59:37.321Z,21.22
2018-09-14T10:00:37.323Z,21.27
2018-09-14T10:02:30.327Z,21.18
2018-09-14T10:03:30.419Z,21.24
2018-09-14T10:05:23.376Z,21.36
2018-09-14T10:06:23.440Z,21.32
2018-09-14T10:08:16.952Z,21.48
2018-09-14T10:09:17.007Z,21.48
2018-09-14T10:11:10.004Z,21.60
2018-09-14T10:12:10.067Z,21.62
2018-09-14T10:14:03.147Z,21.91
2018-09-14T10:15:03.166Z,21.96
2018-09-14T10:16:56.141Z,22.13
2018-09-14T10:17:56.192Z,22.14
2018-09-14T10:19:49.191Z,22.11
2018-09-14T10:20:49.330Z,22.11
2018-09-14T10:22:42.256Z,21.89
2018-09-14T10:23:42.314Z,21.89
2018-09-14T10:25:35.309Z,21.96
2018-09-14T10:26:35.375Z,21.76
2018-09-14T10:28:28.376Z,22.02
2018-09-14T10:29:28.434Z,22.04
2018-09-14T10:31:21.428Z,22.14
2018-09-14T10:32:21.491Z,22.04
2018-09-14T10:34:14.496Z,22.06
2018-09-14T10:35:14.588Z,21.99
2018-09-14T10:37:07.592Z,21.58
2018-09-14T10:38:07.618Z,21.42
2018-09-14T10:40:00.677Z,20.99
2018-09-14T10:41:00.676Z,21.05
2018-09-14T10:42:53.731Z,21.40
2018-09-14T10:43:53.737Z,21.73
2018-09-14T10:45:46.731Z,21.80
2018-09-14T10:46:46.795Z,21.67
2018-09-14T10:48:39.906Z,21.35
2018-09-14T10:49:39.855Z,21.40
2018-09-14T10:51:32.848Z,21.76
2018-09-14T10:52:32.913Z,21.93
2018-09-14T10:54:25.912Z,21.82
2018-09-14T10:55:26.065Z,21.79
2018-09-14T10:57:18.965Z,21.46
2018-09-14T10:58:19.030Z,21.48
2018-09-14T11:00:12.035Z,21.22
2018-09-14T11:01:12.094Z,21.18
2018-09-14T11:03:05.130Z,21.30
2018-09-14T11:04:05.156Z,21.37
2018-09-14T11:05:58.153Z,21.58
2018-09-14T11:06:58.230Z,21.61
2018-09-14T11:08:51.217Z,21.64
2018-09-14T11:09:51.315Z,21.40
2018-09-14T11:11:44.269Z,21.22
2018-09-14T11:12:44.486Z,21.02
2018-09-14T11:14:37.331Z,20.85
2018-09-14T11:15:37.392Z,20.95
2018-09-14T11:17:30.385Z,20.88
2018-09-14T11:18:30.476Z,20.88
2018-09-14T11:20:23.494Z,20.72
2018-09-14T11:21:23.508Z,20.75
2018-09-14T11:23:16.502Z,20.92
2018-09-14T11:24:16.566Z,20.92
2018-09-14T11:26:09.568Z,21.03
2018-09-14T11:27:09.627Z,21.21
2018-09-14T11:29:02.645Z,21.06
2018-09-14T11:30:02.699Z,21.03
2018-09-14T11:31:55.709Z,21.32
2018-09-14T11:32:55.774Z,21.39
2018-09-14T11:39:41.169Z,21.45
2018-09-14T11:40:41.220Z,21.43
2018-09-14T11:42:34.217Z,21.48
2018-09-14T11:43:34.283Z,21.37
2018-09-14T11:45:27.294Z,21.25
2018-09-14T11:46:27.349Z,21.32
2018-09-14T11:48:20.362Z,21.35
2018-09-14T11:49:20.427Z,21.54
2018-09-14T11:51:13.426Z,21.66
2018-09-14T11:52:13.485Z,21.60
2018-09-14T11:54:06.508Z,21.88
2018-09-14T11:55:06.544Z,22.07
2018-09-14T11:56:59.564Z,22.20
2018-09-14T11:57:59.615Z,22.35
2018-09-14T11:59:52.617Z,22.35
2018-09-14T12:00:52.672Z,22.23
2018-09-14T12:02:45.675Z,21.99
2018-09-14T12:03:45.733Z,21.91
2018-09-14T12:05:38.734Z,21.70
2018-09-14T12:06:38.794Z,21.54
2018-09-14T12:08:31.791Z,21.30
2018-09-14T12:09:31.849Z,21.37
2018-09-14T12:11:24.852Z,21.48
2018-09-14T12:12:24.911Z,21.50
2018-09-14T12:14:17.906Z,21.52
2018-09-14T12:15:17.974Z,21.50
2018-09-14T12:17:11.490Z,21.54
2018-09-14T12:18:11.541Z,21.51
2018-09-14T12:20:05.051Z,21.52
2018-09-14T12:21:05.111Z,21.61
2018-09-14T12:22:58.621Z,21.82
2018-09-14T12:23:58.673Z,21.92
2018-09-14T12:25:51.670Z,21.91
2018-09-14T12:26:51.728Z,21.83
2018-09-14T12:28:44.729Z,21.55
2018-09-14T12:29:44.787Z,21.57
2018-09-14T12:31:37.790Z,21.83
2018-09-14T12:32:37.847Z,21.85
2018-09-14T12:34:30.845Z,21.83
2018-09-14T12:35:30.913Z,21.79
2018-09-14T12:37:23.900Z,21.80
2018-09-14T12:38:23.965Z,21.70
2018-09-14T12:40:17.464Z,21.51
2018-09-14T12:41:17.532Z,21.54
2018-09-14T12:43:10.527Z,21.62
2018-09-14T12:44:10.589Z,21.67
2018-09-14T12:46:03.584Z,21.61
2018-09-14T12:47:03.644Z,21.55
2018-09-14T12:48:56.641Z,21.64
2018-09-14T12:49:56.707Z,21.75
2018-09-14T12:51:49.704Z,22.07
2018-09-14T12:52:49.762Z,22.06
2018-09-14T12:54:42.757Z,22.20
2018-09-14T12:55:42.819Z,22.23
2018-09-14T12:57:35.818Z,22.08
2018-09-14T12:58:35.876Z,22.10
2018-09-14T13:00:28.870Z,22.11
2018-09-14T13:01:28.931Z,22.06
2018-09-14T13:03:21.932Z,22.15
2018-09-14T13:04:22.038Z,22.26
2018-09-14T13:06:14.981Z,22.20
2018-09-14T13:07:15.047Z,22.18
2018-09-14T13:09:08.061Z,22.02
2018-09-14T13:10:08.109Z,21.89
2018-09-14T13:12:01.386Z,21.62
2018-09-14T13:13:02.480Z,21.37
2018-09-14T13:14:55.875Z,21.42
2018-09-14T13:15:55.527Z,21.54
2018-09-14T13:17:49.365Z,21.77
2018-09-14T13:18:48.759Z,21.80
2018-09-14T13:20:41.607Z,22.11
2018-09-14T13:21:41.555Z,22.23
2018-09-14T13:23:34.542Z,22.44
2018-09-14T13:24:34.599Z,22.55
2018-09-14T13:26:27.602Z,22.36
2018-09-14T13:27:27.673Z,22.30
2018-09-14T13:29:20.684Z,22.30
2018-09-14T13:30:20.738Z,22.17
2018-09-14T13:32:13.733Z,22.08
2018-09-14T13:33:13.816Z,22.14
2018-09-14T13:35:08.312Z,22.11
2018-09-14T13:36:08.371Z,22.26
2018-09-14T13:38:01.390Z,22.14
2018-09-14T13:39:01.437Z,22.26
2018-09-14T13:40:54.450Z,22.15
2018-09-14T13:41:54.497Z,22.23
2018-09-14T13:43:47.497Z,22.13
2018-09-14T13:44:47.605Z,22.13
2018-09-14T13:46:40.604Z,22.07
2018-09-14T13:47:40.694Z,21.96
2018-09-14T13:49:33.648Z,21.95
2018-09-14T13:50:33.700Z,21.77
2018-09-14T13:52:26.693Z,21.69
2018-09-14T13:53:26.746Z,21.75
2018-09-14T13:55:19.814Z,21.85
2018-09-14T13:56:19.809Z,21.85
2018-09-14T13:58:12.803Z,21.96
2018-09-14T13:59:12.865Z,22.08
2018-09-14T14:01:05.869Z,21.99
2018-09-14T14:02:05.922Z,22.11
2018-09-14T14:03:58.922Z,22.14
2018-09-14T14:04:58.976Z,22.15
2018-09-14T14:06:51.986Z,22.18
2018-09-14T14:07:52.225Z,22.25
2018-09-14T14:09:45.098Z,22.15
2018-09-14T14:10:45.111Z,22.18
2018-09-14T14:12:38.097Z,22.10
2018-09-14T14:13:38.158Z,22.08
2018-09-14T14:15:31.162Z,22.00
2018-09-14T14:16:31.231Z,22.06
2018-09-14T14:18:24.217Z,21.98
2018-09-14T14:19:24.290Z,22.10
2018-09-14T14:21:17.293Z,22.15
2018-09-14T14:22:17.346Z,22.07
2018-09-14T14:24:10.344Z,22.07
2018-09-14T14:25:10.403Z,21.99
2018-09-14T14:27:03.404Z,22.00
2018-09-14T14:28:03.524Z,22.04
2018-09-14T14:29:56.485Z,22.08
2018-09-14T14:30:56.526Z,22.10
2018-09-14T14:32:49.518Z,22.17
2018-09-14T14:33:49.582Z,22.17
2018-09-14T14:35:43.089Z,22.17
2018-09-14T14:36:43.145Z,22.30
2018-09-14T14:38:36.139Z,22.45
2018-09-14T14:39:36.205Z,22.50
2018-09-14T14:41:29.302Z,22.36
2018-09-14T14:42:29.260Z,22.29
2018-09-14T14:44:22.247Z,22.14
2018-09-14T14:45:22.321Z,22.15
2018-09-14T14:47:15.313Z,22.11
2018-09-14T14:48:15.370Z,22.11
2018-09-14T14:50:08.366Z,22.08
2018-09-14T14:51:08.427Z,22.00
2018-09-14T14:53:01.422Z,21.96
2018-09-14T14:54:01.485Z,22.02
2018-09-14T14:55:54.516Z,21.98
2018-09-14T14:56:54.541Z,21.96
2018-09-14T14:58:47.529Z,21.77
2018-09-14T14:59:47.644Z,21.82
2018-09-14T15:01:40.596Z,21.88
2018-09-14T15:02:40.651Z,21.83
2018-09-14T15:04:33.674Z,21.61
2018-09-14T15:05:33.723Z,21.66
2018-09-14T15:07:26.729Z,21.62
2018-09-14T15:08:26.787Z,21.60
2018-09-14T15:10:19.772Z,21.62
2018-09-14T15:11:19.841Z,21.57
2018-09-14T15:13:12.851Z,21.66
2018-09-14T15:14:12.911Z,21.69
2018-09-14T15:16:05.913Z,21.82
2018-09-14T15:17:05.966Z,21.76
2018-09-14T15:18:58.958Z,21.96
2018-09-14T15:19:59.022Z,21.96
2018-09-14T15:21:52.021Z,22.04
2018-09-14T15:22:52.078Z,22.06
2018-09-14T15:24:45.070Z,21.99
2018-09-14T15:25:45.136Z,21.91
2018-09-14T15:27:38.132Z,21.88
2018-09-14T15:28:38.189Z,21.80
2018-09-14T15:30:31.185Z,21.75
2018-09-14T15:31:31.251Z,21.82
2018-09-14T15:33:24.249Z,21.76
2018-09-14T15:34:24.307Z,21.66
2018-09-14T15:36:17.323Z,21.67
2018-09-14T15:37:17.365Z,21.72
2018-09-14T15:39:10.358Z,21.52
2018-09-14T15:40:10.418Z,21.55
2018-09-14T15:42:03.416Z,21.52
2018-09-14T15:43:03.468Z,21.69
2018-09-14T15:44:56.466Z,21.69
2018-09-14T15:45:56.544Z,21.64
2018-09-14T15:47:49.542Z,21.73
2018-09-14T15:48:49.626Z,21.77
2018-09-14T15:50:42.589Z,21.79
2018-09-14T15:51:42.677Z,21.75
2018-09-14T15:53:35.655Z,21.77
2018-09-14T15:54:35.710Z,21.76
2018-09-14T15:56:28.706Z,21.82
2018-09-14T15:57:28.769Z,21.66
2018-09-14T15:59:21.766Z,21.50
2018-09-14T16:00:21.841Z,21.55
2018-09-14T16:02:14.869Z,21.40
2018-09-14T16:03:14.881Z,21.43
2018-09-14T16:05:07.880Z,21.42
2018-09-14T16:06:07.944Z,21.30
2018-09-14T16:08:00.938Z,21.20
2018-09-14T16:09:00.991Z,21.25
2018-09-14T16:10:53.988Z,21.12
2018-09-14T16:11:54.093Z,21.12
2018-09-14T16:13:47.129Z,21.09
2018-09-14T16:14:47.175Z,21.03
2018-09-14T16:16:40.169Z,20.97
2018-09-14T16:17:40.231Z,21.00
2018-09-14T16:19:33.230Z,20.88
2018-09-14T16:20:33.287Z,20.82
2018-09-14T16:22:26.288Z,20.92
2018-09-14T16:23:26.353Z,20.82
2018-09-14T16:25:19.355Z,20.74
2018-09-14T16:26:19.405Z,20.70
2018-09-14T16:28:12.415Z,20.74
2018-09-14T16:29:12.474Z,20.70
2018-09-14T16:31:05.473Z,20.69
2018-09-14T16:32:05.530Z,20.59
2018-09-14T16:33:58.529Z,20.56
2018-09-14T16:34:58.585Z,20.62
2018-09-14T16:36:51.578Z,20.55
2018-09-14T16:37:51.637Z,20.52
2018-09-14T16:39:44.638Z,20.44
2018-09-14T16:40:44.704Z,20.39
2018-09-14T16:42:37.681Z,20.31
2018-09-14T16:43:37.747Z,20.29
2018-09-14T16:45:30.746Z,20.32
2018-09-14T16:46:30.803Z,20.40
2018-09-14T16:48:23.802Z,20.40
2018-09-14T16:49:23.859Z,20.41
2018-09-14T16:51:16.848Z,20.28
2018-09-14T16:52:16.909Z,20.26
2018-09-14T16:54:09.910Z,20.22
2018-09-14T16:55:09.968Z,20.24
2018-09-14T16:57:02.963Z,20.13
2018-09-14T16:58:03.027Z,20.18
2018-09-14T16:59:56.023Z,20.09
2018-09-14T17:00:56.082Z,20.00
2018-09-14T17:02:49.129Z,20.03
2018-09-14T17:03:49.145Z,20.00
2018-09-14T17:05:42.138Z,19.94
2018-09-14T17:06:42.196Z,19.89
2018-09-14T17:08:35.196Z,19.81
2018-09-14T17:09:35.252Z,19.81
2018-09-14T17:11:28.257Z,19.77
2018-09-14T17:12:28.311Z,19.74
2018-09-14T17:14:21.309Z,19.69
2018-09-14T17:15:21.365Z,19.59
2018-09-14T17:17:14.354Z,19.56
2018-09-14T17:18:14.418Z,19.59
2018-09-14T17:20:07.421Z,19.44
2018-09-14T17:21:07.476Z,19.45
2018-09-14T17:23:00.472Z,19.45
2018-09-14T17:24:00.548Z,19.45
2018-09-14T17:25:53.561Z,19.34
2018-09-14T17:26:53.616Z,19.26
2018-09-14T17:28:46.600Z,19.21
2018-09-14T17:29:46.666Z,19.21
2018-09-14T17:31:39.662Z,19.18
2018-09-14T17:32:39.718Z,19.12
2018-09-14T17:34:32.721Z,19.02
2018-09-14T17:35:32.817Z,19.04
2018-09-14T17:37:25.804Z,18.98
2018-09-14T17:38:25.828Z,18.89
2018-09-14T17:40:18.851Z,18.81
2018-09-14T17:41:18.896Z,18.81
2018-09-14T17:43:11.904Z,18.77
2018-09-14T17:44:11.961Z,18.81
2018-09-14T17:46:04.952Z,18.83
2018-09-14T17:47:05.009Z,18.60
2018-09-14T17:48:58.017Z,18.45
2018-09-14T17:49:58.065Z,18.50
2018-09-14T17:51:51.110Z,18.47
2018-09-14T17:52:51.156Z,18.47
2018-09-14T17:54:44.144Z,18.31
2018-09-14T17:55:44.252Z,18.25
2018-09-14T17:57:37.314Z,18.28
2018-09-14T17:58:37.266Z,18.16
2018-09-14T18:00:30.244Z,18.01
2018-09-14T18:01:30.316Z,17.90
2018-09-14T18:03:23.372Z,17.97
2018-09-14T18:04:23.368Z,17.98
2018-09-14T18:06:16.347Z,17.89
2018-09-14T18:07:16.424Z,17.94
2018-09-14T18:09:09.424Z,17.80
2018-09-14T18:10:09.723Z,17.71
2018-09-14T18:12:02.549Z,17.72
2018-09-14T18:13:02.550Z,17.67
2018-09-14T18:14:55.530Z,17.64
2018-09-14T18:15:55.592Z,17.64
2018-09-14T18:17:48.590Z,17.56
2018-09-14T18:18:48.642Z,17.64
2018-09-14T18:20:41.646Z,17.71
2018-09-14T18:21:41.708Z,17.65
2018-09-14T18:23:34.704Z,17.64
2018-09-14T18:24:34.762Z,17.65
2018-09-14T18:26:27.771Z,17.74
2018-09-14T18:27:28.983Z,17.72
2018-09-14T18:29:20.840Z,17.71
2018-09-14T18:30:20.880Z,17.79
2018-09-14T18:32:13.878Z,17.74
2018-09-14T18:33:13.995Z,17.74
2018-09-14T18:35:06.946Z,17.86
2018-09-14T18:36:07.043Z,17.79
2018-09-14T18:38:00.862Z,17.89
2018-09-14T18:39:00.916Z,17.80